sensor_id;sensor_type;location;lat;lon;timestamp;pressure;altitude;pressure_sealevel;temperature;humidity
56807;BME280;42687;42.524;12.052;2022-10-16T00:00:18;97228.53;;;11.29;100.00
56807;BME280;42687;42.524;12.052;2022-10-16T00:02:43;97238.28;;;11.27;100.00
56807;BME280;42687;42.524;12.052;2022-10-16T00:05:09;97231.41;;;11.24;100.00
56807;BME280;42687;42.524;12.052;2022-10-16T00:07:35;97233.28;;;11.22;100.00
56807;BME280;42687;42.524;12.052;2022-10-16T00:10:00;97237.75;;;11.20;100.00
56807;BME280;42687;42.524;12.052;2022-10-16T00:12:26;97237.75;;;11.20;100.00
56807;BME280;42687;42.524;12.052;2022-10-16T00:14:51;97225.88;;;11.13;100.00
56807;BME280;42687;42.524;12.052;2022-10-16T00:17:17;97187.56;;;10.74;100.00
56807;BME280;42687;42.524;12.052;2022-10-16T00:19:42;97232.78;;;10.98;100.00
56807;BME280;42687;42.524;12.052;2022-10-16T00:22:08;97233.78;;;10.95;100.00
56807;BME280;42687;42.524;12.052;2022-10-16T00:24:33;97233.25;;;10.89;100.00
56807;BME280;42687;42.524;12.052;2022-10-16T00:26:59;97229.25;;;10.81;100.00
56807;BME280;42687;42.524;12.052;2022-10-16T00:29:24;97224.38;;;10.74;100.00
56807;BME280;42687;42.524;12.052;2022-10-16T00:31:50;97235.28;;;10.66;100.00
56807;BME280;42687;42.524;12.052;2022-10-16T00:34:15;97231.97;;;10.62;100.00
56807;BME280;42687;42.524;12.052;2022-10-16T00:36:41;97231.13;;;10.62;100.00
56807;BME280;42687;42.524;12.052;2022-10-16T00:39:06;97229.19;;;10.65;100.00
56807;BME280;42687;42.524;12.052;2022-10-16T00:41:32;97228.19;;;10.68;100.00
56807;BME280;42687;42.524;12.052;2022-10-16T00:43:58;97228.94;;;10.70;100.00
56807;BME280;42687;42.524;12.052;2022-10-16T00:46:25;97232.53;;;10.69;100.00
56807;BME280;42687;42.524;12.052;2022-10-16T00:49:11;97236.06;;;10.68;100.00
56807;BME280;42687;42.524;12.052;2022-10-16T00:51:39;97238.72;;;10.68;100.00
56807;BME280;42687;42.524;12.052;2022-10-16T00:54:07;97242.25;;;10.67;100.00
56807;BME280;42687;42.524;12.052;2022-10-16T00:56:33;97244.72;;;10.70;100.00
56807;BME280;42687;42.524;12.052;2022-10-16T00:58:59;97159.25;;;10.26;100.00
56807;BME280;42687;42.524;12.052;2022-10-16T01:01:26;97242.78;;;10.74;100.00
56807;BME280;42687;42.524;12.052;2022-10-16T01:03:52;97231.56;;;10.70;100.00
56807;BME280;42687;42.524;12.052;2022-10-16T01:06:23;97228.47;;;10.62;100.00
56807;BME280;42687;42.524;12.052;2022-10-16T01:14:24;97237.47;;;10.40;100.00
56807;BME280;42687;42.524;12.052;2022-10-16T01:16:58;97239.94;;;10.43;100.00
56807;BME280;42687;42.524;12.052;2022-10-16T01:19:26;97250.31;;;10.46;100.00
56807;BME280;42687;42.524;12.052;2022-10-16T01:21:56;97246.53;;;10.52;100.00
56807;BME280;42687;42.524;12.052;2022-10-16T01:29:54;97240.47;;;10.50;100.00
56807;BME280;42687;42.524;12.052;2022-10-16T01:34:48;97244.34;;;10.60;100.00
56807;BME280;42687;42.524;12.052;2022-10-16T01:37:16;97250.22;;;10.65;100.00
56807;BME280;42687;42.524;12.052;2022-10-16T01:39:45;97242.09;;;10.70;100.00
56807;BME280;42687;42.524;12.052;2022-10-16T01:42:16;97239.41;;;10.72;100.00
56807;BME280;42687;42.524;12.052;2022-10-16T01:44:44;97241.00;;;10.74;100.00
56807;BME280;42687;42.524;12.052;2022-10-16T01:47:11;97238.22;;;10.77;100.00
56807;BME280;42687;42.524;12.052;2022-10-16T01:49:38;97221.03;;;10.70;100.00
56807;BME280;42687;42.524;12.052;2022-10-16T01:52:06;97237.91;;;10.83;100.00
56807;BME280;42687;42.524;12.052;2022-10-16T01:54:34;97232.16;;;10.93;100.00
56807;BME280;42687;42.524;12.052;2022-10-16T01:57:00;97234.31;;;11.02;100.00
56807;BME280;42687;42.524;12.052;2022-10-16T01:59:27;97229.22;;;10.99;100.00
56807;BME280;42687;42.524;12.052;2022-10-16T02:01:55;97241.97;;;11.07;100.00
56807;BME280;42687;42.524;12.052;2022-10-16T02:04:23;97219.63;;;10.98;100.00
56807;BME280;42687;42.524;12.052;2022-10-16T02:06:49;97233.25;;;11.06;100.00
56807;BME280;42687;42.524;12.052;2022-10-16T02:09:15;97238.91;;;10.98;100.00
56807;BME280;42687;42.524;12.052;2022-10-16T02:11:42;97236.41;;;10.95;100.00
56807;BME280;42687;42.524;12.052;2022-10-16T02:14:08;97243.00;;;11.04;100.00
56807;BME280;42687;42.524;12.052;2022-10-16T02:16:40;97230.63;;;11.06;100.00
56807;BME280;42687;42.524;12.052;2022-10-16T02:19:06;97232.38;;;11.06;100.00
56807;BME280;42687;42.524;12.052;2022-10-16T02:21:43;97235.09;;;11.04;100.00
56807;BME280;42687;42.524;12.052;2022-10-16T02:27:27;97242.81;;;11.07;100.00
56807;BME280;42687;42.524;12.052;2022-10-16T02:29:27;97248.41;;;11.01;100.00
56807;BME280;42687;42.524;12.052;2022-10-16T02:31:57;97240.84;;;10.95;100.00
56807;BME280;42687;42.524;12.052;2022-10-16T02:34:24;97243.56;;;10.93;100.00
56807;BME280;42687;42.524;12.052;2022-10-16T02:36:51;97247.03;;;10.94;100.00
56807;BME280;42687;42.524;12.052;2022-10-16T02:39:18;97240.91;;;10.93;100.00
56807;BME280;42687;42.524;12.052;2022-10-16T02:41:44;97245.09;;;10.97;100.00
56807;BME280;42687;42.524;12.052;2022-10-16T02:44:10;97199.16;;;10.70;100.00
56807;BME280;42687;42.524;12.052;2022-10-16T02:46:36;97248.56;;;10.98;100.00
56807;BME280;42687;42.524;12.052;2022-10-16T02:49:01;97239.81;;;10.97;100.00
56807;BME280;42687;42.524;12.052;2022-10-16T02:51:27;97248.66;;;10.96;100.00
56807;BME280;42687;42.524;12.052;2022-10-16T02:53:52;97250.53;;;10.94;100.00
56807;BME280;42687;42.524;12.052;2022-10-16T02:56:18;97239.13;;;10.94;100.00
56807;BME280;42687;42.524;12.052;2022-10-16T02:58:44;97251.38;;;10.95;100.00
56807;BME280;42687;42.524;12.052;2022-10-16T03:01:09;97246.09;;;10.95;100.00
56807;BME280;42687;42.524;12.052;2022-10-16T03:03:35;97234.97;;;10.90;100.00
56807;BME280;42687;42.524;12.052;2022-10-16T03:06:01;97251.63;;;10.90;100.00
56807;BME280;42687;42.524;12.052;2022-10-16T03:08:26;97243.63;;;10.92;100.00
56807;BME280;42687;42.524;12.052;2022-10-16T03:10:52;97246.34;;;10.90;100.00
56807;BME280;42687;42.524;12.052;2022-10-16T03:13:17;97250.00;;;10.88;100.00
56807;BME280;42687;42.524;12.052;2022-10-16T03:15:45;97251.66;;;10.89;100.00
56807;BME280;42687;42.524;12.052;2022-10-16T03:18:11;97249.75;;;10.92;100.00
56807;BME280;42687;42.524;12.052;2022-10-16T03:20:36;97251.28;;;10.96;100.00
56807;BME280;42687;42.524;12.052;2022-10-16T03:23:02;97253.06;;;10.96;100.00
56807;BME280;42687;42.524;12.052;2022-10-16T03:25:28;97261.09;;;10.93;100.00
56807;BME280;42687;42.524;12.052;2022-10-16T03:27:53;97254.56;;;10.84;100.00
56807;BME280;42687;42.524;12.052;2022-10-16T03:30:19;97257.56;;;10.76;100.00
56807;BME280;42687;42.524;12.052;2022-10-16T03:32:44;97254.47;;;10.68;100.00
56807;BME280;42687;42.524;12.052;2022-10-16T03:35:10;97257.41;;;10.62;100.00
56807;BME280;42687;42.524;12.052;2022-10-16T03:37:36;97251.69;;;10.54;100.00
56807;BME280;42687;42.524;12.052;2022-10-16T03:40:02;97252.00;;;10.47;100.00
56807;BME280;42687;42.524;12.052;2022-10-16T03:42:28;97247.81;;;10.43;100.00
56807;BME280;42687;42.524;12.052;2022-10-16T03:44:53;97251.91;;;10.49;100.00
56807;BME280;42687;42.524;12.052;2022-10-16T03:47:19;97251.44;;;10.58;100.00
56807;BME280;42687;42.524;12.052;2022-10-16T03:49:47;97250.16;;;10.67;100.00
56807;BME280;42687;42.524;12.052;2022-10-16T03:52:13;97260.50;;;10.70;100.00
56807;BME280;42687;42.524;12.052;2022-10-16T03:54:38;97260.03;;;10.62;100.00
56807;BME280;42687;42.524;12.052;2022-10-16T03:57:04;97258.97;;;10.48;100.00
56807;BME280;42687;42.524;12.052;2022-10-16T03:59:29;97259.84;;;10.30;100.00
56807;BME280;42687;42.524;12.052;2022-10-16T04:01:55;97275.78;;;10.27;100.00
56807;BME280;42687;42.524;12.052;2022-10-16T04:04:20;97274.50;;;10.16;100.00
56807;BME280;42687;42.524;12.052;2022-10-16T04:06:46;97271.09;;;10.14;100.00
56807;BME280;42687;42.524;12.052;2022-10-16T04:09:11;97275.59;;;10.12;100.00
56807;BME280;42687;42.524;12.052;2022-10-16T04:11:37;97281.19;;;10.05;100.00
56807;BME280;42687;42.524;12.052;2022-10-16T04:14:03;97271.97;;;9.96;100.00
56807;BME280;42687;42.524;12.052;2022-10-16T04:16:28;97199.34;;;9.39;100.00
56807;BME280;42687;42.524;12.052;2022-10-16T04:18:53;97281.50;;;9.79;100.00
56807;BME280;42687;42.524;12.052;2022-10-16T04:21:19;97291.19;;;9.79;100.00
56807;BME280;42687;42.524;12.052;2022-10-16T04:23:45;97284.97;;;9.80;100.00
56807;BME280;42687;42.524;12.052;2022-10-16T04:26:10;97281.59;;;9.78;100.00
56807;BME280;42687;42.524;12.052;2022-10-16T04:28:36;97288.31;;;9.83;100.00
56807;BME280;42687;42.524;12.052;2022-10-16T04:31:04;97287.97;;;9.91;100.00
56807;BME280;42687;42.524;12.052;2022-10-16T04:33:30;97286.81;;;9.97;100.00
56807;BME280;42687;42.524;12.052;2022-10-16T04:35:56;97297.03;;;10.03;100.00
56807;BME280;42687;42.524;12.052;2022-10-16T04:38:22;97297.75;;;10.07;100.00
56807;BME280;42687;42.524;12.052;2022-10-16T04:40:48;97299.44;;;10.08;100.00
56807;BME280;42687;42.524;12.052;2022-10-16T04:43:13;97299.44;;;10.08;100.00
56807;BME280;42687;42.524;12.052;2022-10-16T04:45:39;97290.44;;;10.13;100.00
56807;BME280;42687;42.524;12.052;2022-10-16T04:48:04;97285.81;;;10.18;100.00
56807;BME280;42687;42.524;12.052;2022-10-16T04:50:30;97294.25;;;10.25;100.00
56807;BME280;42687;42.524;12.052;2022-10-16T04:52:55;97294.69;;;10.35;100.00
56807;BME280;42687;42.524;12.052;2022-10-16T04:55:21;97295.16;;;10.43;100.00
56807;BME280;42687;42.524;12.052;2022-10-16T04:57:46;97292.69;;;10.40;100.00
56807;BME280;42687;42.524;12.052;2022-10-16T05:00:12;97299.28;;;10.30;100.00
56807;BME280;42687;42.524;12.052;2022-10-16T05:02:38;97297.25;;;10.17;100.00
56807;BME280;42687;42.524;12.052;2022-10-16T05:05:03;97290.56;;;10.10;100.00
56807;BME280;42687;42.524;12.052;2022-10-16T05:07:29;97290.56;;;10.10;100.00
56807;BME280;42687;42.524;12.052;2022-10-16T05:09:54;97296.00;;;10.25;100.00
56807;BME280;42687;42.524;12.052;2022-10-16T05:12:20;97292.75;;;10.39;100.00
56807;BME280;42687;42.524;12.052;2022-10-16T05:14:45;97281.78;;;10.48;100.00
56807;BME280;42687;42.524;12.052;2022-10-16T05:17:11;97276.81;;;10.59;100.00
56807;BME280;42687;42.524;12.052;2022-10-16T05:19:36;97284.19;;;10.70;100.00
56807;BME280;42687;42.524;12.052;2022-10-16T05:22:02;97281.94;;;10.80;100.00
56807;BME280;42687;42.524;12.052;2022-10-16T05:24:27;97283.41;;;10.85;100.00
56807;BME280;42687;42.524;12.052;2022-10-16T05:26:53;97292.63;;;10.94;100.00
56807;BME280;42687;42.524;12.052;2022-10-16T05:29:18;97246.59;;;10.68;100.00
56807;BME280;42687;42.524;12.052;2022-10-16T05:31:44;97290.38;;;10.87;100.00
56807;BME280;42687;42.524;12.052;2022-10-16T05:34:09;97298.50;;;10.82;100.00
56807;BME280;42687;42.524;12.052;2022-10-16T05:36:35;97298.75;;;10.77;100.00
56807;BME280;42687;42.524;12.052;2022-10-16T05:39:00;97300.59;;;10.75;100.00
56807;BME280;42687;42.524;12.052;2022-10-16T05:41:26;97305.53;;;10.81;100.00
56807;BME280;42687;42.524;12.052;2022-10-16T05:43:52;97296.81;;;10.81;100.00
56807;BME280;42687;42.524;12.052;2022-10-16T05:46:17;97309.50;;;10.90;100.00
56807;BME280;42687;42.524;12.052;2022-10-16T05:48:43;97306.94;;;10.89;100.00
56807;BME280;42687;42.524;12.052;2022-10-16T05:51:09;97294.84;;;10.84;100.00
56807;BME280;42687;42.524;12.052;2022-10-16T05:53:36;97301.66;;;10.89;100.00
56807;BME280;42687;42.524;12.052;2022-10-16T05:56:01;97297.09;;;10.92;100.00
56807;BME280;42687;42.524;12.052;2022-10-16T05:58:32;97305.78;;;10.94;100.00
56807;BME280;42687;42.524;12.052;2022-10-16T06:00:58;97302.16;;;10.97;100.00
56807;BME280;42687;42.524;12.052;2022-10-16T06:03:24;97303.53;;;11.04;100.00
56807;BME280;42687;42.524;12.052;2022-10-16T06:05:50;97306.03;;;11.23;100.00
56807;BME280;42687;42.524;12.052;2022-10-16T06:08:16;97315.88;;;11.37;100.00
56807;BME280;42687;42.524;12.052;2022-10-16T06:10:41;97324.38;;;11.42;100.00
56807;BME280;42687;42.524;12.052;2022-10-16T06:13:07;97326.41;;;11.37;100.00
56807;BME280;42687;42.524;12.052;2022-10-16T06:15:32;97323.84;;;11.35;100.00
56807;BME280;42687;42.524;12.052;2022-10-16T06:17:58;97322.84;;;11.38;100.00
56807;BME280;42687;42.524;12.052;2022-10-16T06:20:23;97323.47;;;11.43;100.00
56807;BME280;42687;42.524;12.052;2022-10-16T06:22:49;97325.81;;;11.48;100.00
56807;BME280;42687;42.524;12.052;2022-10-16T06:25:14;97323.63;;;11.56;100.00
56807;BME280;42687;42.524;12.052;2022-10-16T06:27:40;97333.69;;;11.65;100.00
56807;BME280;42687;42.524;12.052;2022-10-16T06:30:06;97334.66;;;11.80;100.00
56807;BME280;42687;42.524;12.052;2022-10-16T06:32:32;97341.75;;;11.96;100.00
56807;BME280;42687;42.524;12.052;2022-10-16T06:34:57;97346.09;;;12.13;100.00
56807;BME280;42687;42.524;12.052;2022-10-16T06:37:23;97337.69;;;12.38;100.00
56807;BME280;42687;42.524;12.052;2022-10-16T06:39:50;97340.75;;;12.77;100.00
56807;BME280;42687;42.524;12.052;2022-10-16T06:42:17;97348.72;;;13.22;100.00
56807;BME280;42687;42.524;12.052;2022-10-16T06:44:43;97347.47;;;13.58;100.00
56807;BME280;42687;42.524;12.052;2022-10-16T06:47:08;97358.97;;;14.00;100.00
56807;BME280;42687;42.524;12.052;2022-10-16T06:49:34;97356.06;;;14.46;95.98
56807;BME280;42687;42.524;12.052;2022-10-16T06:52:00;97364.22;;;14.98;95.29
56807;BME280;42687;42.524;12.052;2022-10-16T06:54:26;97368.22;;;15.57;95.12
56807;BME280;42687;42.524;12.052;2022-10-16T06:56:52;97371.16;;;16.16;94.12
56807;BME280;42687;42.524;12.052;2022-10-16T06:59:20;97368.09;;;16.84;92.73
56807;BME280;42687;42.524;12.052;2022-10-16T07:01:45;97367.88;;;17.47;90.67
56807;BME280;42687;42.524;12.052;2022-10-16T07:04:11;97367.56;;;17.97;89.56
56807;BME280;42687;42.524;12.052;2022-10-16T07:06:36;97316.75;;;18.23;88.17
56807;BME280;42687;42.524;12.052;2022-10-16T07:09:03;97376.28;;;18.99;86.48
56807;BME280;42687;42.524;12.052;2022-10-16T07:11:29;97370.44;;;19.48;84.98
56807;BME280;42687;42.524;12.052;2022-10-16T07:13:54;97376.81;;;19.99;83.78
56807;BME280;42687;42.524;12.052;2022-10-16T07:16:21;97375.28;;;20.37;82.85
56807;BME280;42687;42.524;12.052;2022-10-16T07:18:47;97384.06;;;20.69;82.42
56807;BME280;42687;42.524;12.052;2022-10-16T07:21:20;97386.22;;;20.85;83.06
56807;BME280;42687;42.524;12.052;2022-10-16T07:23:53;97376.41;;;21.05;83.34
56807;BME280;42687;42.524;12.052;2022-10-16T07:26:18;97377.66;;;21.40;83.27
56807;BME280;42687;42.524;12.052;2022-10-16T07:28:44;97388.63;;;21.76;82.51
56807;BME280;42687;42.524;12.052;2022-10-16T07:31:11;97389.41;;;21.96;82.11
56807;BME280;42687;42.524;12.052;2022-10-16T07:33:37;97398.34;;;22.24;81.44
56807;BME280;42687;42.524;12.052;2022-10-16T07:36:03;97353.22;;;22.29;79.59
56807;BME280;42687;42.524;12.052;2022-10-16T07:38:29;97393.53;;;22.83;78.38
56807;BME280;42687;42.524;12.052;2022-10-16T07:40:57;97397.78;;;23.04;77.47
56807;BME280;42687;42.524;12.052;2022-10-16T07:43:23;97393.22;;;23.32;76.84
56807;BME280;42687;42.524;12.052;2022-10-16T07:45:49;97399.94;;;23.55;75.77
56807;BME280;42687;42.524;12.052;2022-10-16T07:48:15;97396.22;;;23.47;75.69
56807;BME280;42687;42.524;12.052;2022-10-16T07:50:41;97398.97;;;23.38;75.84
56807;BME280;42687;42.524;12.052;2022-10-16T07:53:06;97409.47;;;23.31;76.19
56807;BME280;42687;42.524;12.052;2022-10-16T07:55:32;97365.81;;;22.75;76.56
56807;BME280;42687;42.524;12.052;2022-10-16T07:57:57;97424.81;;;22.93;76.88
56807;BME280;42687;42.524;12.052;2022-10-16T08:00:23;97426.50;;;22.94;76.73
56807;BME280;42687;42.524;12.052;2022-10-16T08:02:48;97424.59;;;23.04;76.43
56807;BME280;42687;42.524;12.052;2022-10-16T08:05:14;97428.84;;;23.07;76.05
56807;BME280;42687;42.524;12.052;2022-10-16T08:07:39;97424.28;;;23.07;75.87
56807;BME280;42687;42.524;12.052;2022-10-16T08:10:05;97425.81;;;23.20;75.93
56807;BME280;42687;42.524;12.052;2022-10-16T08:12:30;97429.41;;;23.46;75.16
56807;BME280;42687;42.524;12.052;2022-10-16T08:14:56;97422.22;;;23.73;74.70
56807;BME280;42687;42.524;12.052;2022-10-16T08:17:21;97425.59;;;23.93;73.75
56807;BME280;42687;42.524;12.052;2022-10-16T08:19:47;97435.88;;;23.80;73.86
56807;BME280;42687;42.524;12.052;2022-10-16T08:22:16;97375.72;;;23.46;73.87
56807;BME280;42687;42.524;12.052;2022-10-16T08:24:41;97441.47;;;23.87;73.52
56807;BME280;42687;42.524;12.052;2022-10-16T08:27:07;97437.50;;;23.91;73.42
56807;BME280;42687;42.524;12.052;2022-10-16T08:29:34;97445.56;;;23.91;73.38
56807;BME280;42687;42.524;12.052;2022-10-16T08:31:59;97440.72;;;23.94;73.37
56807;BME280;42687;42.524;12.052;2022-10-16T08:34:24;97449.25;;;24.16;72.68
56807;BME280;42687;42.524;12.052;2022-10-16T08:36:52;97446.56;;;24.16;72.28
56807;BME280;42687;42.524;12.052;2022-10-16T08:39:18;97438.97;;;24.11;71.13
56807;BME280;42687;42.524;12.052;2022-10-16T08:49:10;97455.59;;;24.41;70.50
56807;BME280;42687;42.524;12.052;2022-10-16T08:51:36;97458.28;;;24.41;69.73
56807;BME280;42687;42.524;12.052;2022-10-16T08:54:06;97464.34;;;24.43;69.80
56807;BME280;42687;42.524;12.052;2022-10-16T08:56:32;97451.09;;;24.42;70.00
56807;BME280;42687;42.524;12.052;2022-10-16T08:58:58;97462.69;;;24.51;70.23
56807;BME280;42687;42.524;12.052;2022-10-16T09:01:25;97465.91;;;24.80;69.41
56807;BME280;42687;42.524;12.052;2022-10-16T09:06:50;97460.56;;;24.97;68.36
56807;BME280;42687;42.524;12.052;2022-10-16T09:12:07;97465.13;;;24.62;68.89
56807;BME280;42687;42.524;12.052;2022-10-16T09:14:40;97468.94;;;24.51;69.01
56807;BME280;42687;42.524;12.052;2022-10-16T09:17:18;97466.81;;;24.28;69.76
56807;BME280;42687;42.524;12.052;2022-10-16T09:19:53;97467.00;;;24.09;70.07
56807;BME280;42687;42.524;12.052;2022-10-16T09:22:21;97466.44;;;24.23;69.93
56807;BME280;42687;42.524;12.052;2022-10-16T09:24:50;97479.38;;;24.54;68.97
56807;BME280;42687;42.524;12.052;2022-10-16T09:27:15;97477.28;;;24.66;67.78
56807;BME280;42687;42.524;12.052;2022-10-16T09:29:41;97480.78;;;24.67;68.10
56807;BME280;42687;42.524;12.052;2022-10-16T09:32:09;97478.38;;;24.90;67.78
56807;BME280;42687;42.524;12.052;2022-10-16T09:34:36;97487.91;;;25.19;67.32
56807;BME280;42687;42.524;12.052;2022-10-16T09:37:05;97487.75;;;25.28;67.51
56807;BME280;42687;42.524;12.052;2022-10-16T09:39:53;97484.78;;;25.48;67.08
56807;BME280;42687;42.524;12.052;2022-10-16T09:42:19;97478.06;;;25.60;66.64
56807;BME280;42687;42.524;12.052;2022-10-16T09:44:51;97437.16;;;25.48;66.35
56807;BME280;42687;42.524;12.052;2022-10-16T09:47:25;97484.13;;;25.79;65.97
56807;BME280;42687;42.524;12.052;2022-10-16T09:49:55;97475.88;;;25.56;65.91
56807;BME280;42687;42.524;12.052;2022-10-16T09:52:23;97459.69;;;25.47;66.42
56807;BME280;42687;42.524;12.052;2022-10-16T09:55:31;97474.38;;;25.70;66.06
56807;BME280;42687;42.524;12.052;2022-10-16T09:57:37;97481.13;;;25.90;65.42
56807;BME280;42687;42.524;12.052;2022-10-16T10:00:15;97482.97;;;25.81;65.21
56807;BME280;42687;42.524;12.052;2022-10-16T10:02:41;97480.28;;;25.65;65.30
56807;BME280;42687;42.524;12.052;2022-10-16T10:05:17;97486.44;;;25.41;66.01
56807;BME280;42687;42.524;12.052;2022-10-16T10:07:44;97489.81;;;25.43;65.63
56807;BME280;42687;42.524;12.052;2022-10-16T10:10:23;97488.31;;;25.48;65.43
56807;BME280;42687;42.524;12.052;2022-10-16T10:12:49;97483.44;;;25.69;65.14
56807;BME280;42687;42.524;12.052;2022-10-16T10:15:14;97475.03;;;25.96;63.90
56807;BME280;42687;42.524;12.052;2022-10-16T10:17:47;97481.44;;;26.20;62.95
56807;BME280;42687;42.524;12.052;2022-10-16T10:22:48;97472.84;;;25.92;63.86
56807;BME280;42687;42.524;12.052;2022-10-16T10:43:04;97473.69;;;26.01;61.39
56807;BME280;42687;42.524;12.052;2022-10-16T10:50:34;97474.69;;;26.41;59.77
56807;BME280;42687;42.524;12.052;2022-10-16T11:00:56;97477.88;;;27.24;57.55
56807;BME280;42687;42.524;12.052;2022-10-16T11:03:27;97480.28;;;27.50;58.84
56807;BME280;42687;42.524;12.052;2022-10-16T11:06:05;97470.59;;;27.64;58.14
56807;BME280;42687;42.524;12.052;2022-10-16T11:08:36;97464.50;;;27.62;57.09
56807;BME280;42687;42.524;12.052;2022-10-16T11:11:11;97470.50;;;27.49;54.38
56807;BME280;42687;42.524;12.052;2022-10-16T11:13:52;97468.75;;;27.02;57.69
56807;BME280;42687;42.524;12.052;2022-10-16T11:16:21;97468.31;;;25.92;60.92
56807;BME280;42687;42.524;12.052;2022-10-16T11:18:55;97468.97;;;24.59;63.04
56807;BME280;42687;42.524;12.052;2022-10-16T11:21:24;97476.78;;;23.56;64.98
56807;BME280;42687;42.524;12.052;2022-10-16T11:24:00;97467.13;;;22.99;65.06
56807;BME280;42687;42.524;12.052;2022-10-16T11:26:28;97471.59;;;23.54;62.77
56807;BME280;42687;42.524;12.052;2022-10-16T11:28:57;97469.31;;;24.30;61.70
56807;BME280;42687;42.524;12.052;2022-10-16T11:31:26;97469.31;;;24.91;59.53
56807;BME280;42687;42.524;12.052;2022-10-16T11:33:56;97465.94;;;24.89;60.44
56807;BME280;42687;42.524;12.052;2022-10-16T11:36:31;97457.38;;;23.98;62.33
56807;BME280;42687;42.524;12.052;2022-10-16T11:39:00;97464.84;;;23.04;64.52
56807;BME280;42687;42.524;12.052;2022-10-16T11:41:35;97463.69;;;22.51;65.36
56807;BME280;42687;42.524;12.052;2022-10-16T11:44:06;97454.56;;;22.34;65.90
56807;BME280;42687;42.524;12.052;2022-10-16T11:46:35;97461.00;;;22.04;66.10
56807;BME280;42687;42.524;12.052;2022-10-16T11:49:07;97466.69;;;21.71;66.90
56807;BME280;42687;42.524;12.052;2022-10-16T11:54:03;97469.72;;;21.08;68.36
56807;BME280;42687;42.524;12.052;2022-10-16T11:56:30;97468.25;;;20.84;68.30
56807;BME280;42687;42.524;12.052;2022-10-16T11:59:34;97463.16;;;20.71;68.35
56807;BME280;42687;42.524;12.052;2022-10-16T12:01:52;97461.84;;;20.65;68.60
56807;BME280;42687;42.524;12.052;2022-10-16T12:04:30;97457.75;;;20.61;68.17
56807;BME280;42687;42.524;12.052;2022-10-16T12:07:11;97465.78;;;20.61;68.28
56807;BME280;42687;42.524;12.052;2022-10-16T12:09:40;97463.78;;;20.63;67.88
56807;BME280;42687;42.524;12.052;2022-10-16T12:17:37;97460.34;;;20.73;67.60
56807;BME280;42687;42.524;12.052;2022-10-16T12:22:59;97462.47;;;20.79;67.41
56807;BME280;42687;42.524;12.052;2022-10-16T12:30:40;97460.88;;;21.17;66.42
56807;BME280;42687;42.524;12.052;2022-10-16T12:33:23;97449.47;;;21.44;66.21
56807;BME280;42687;42.524;12.052;2022-10-16T12:35:49;97449.63;;;21.82;65.34
56807;BME280;42687;42.524;12.052;2022-10-16T12:40:41;97453.31;;;22.28;64.78
56807;BME280;42687;42.524;12.052;2022-10-16T12:45:46;97454.53;;;22.54;65.01
56807;BME280;42687;42.524;12.052;2022-10-16T12:48:21;97448.13;;;22.64;64.90
56807;BME280;42687;42.524;12.052;2022-10-16T12:50:47;97444.31;;;22.85;64.28
56807;BME280;42687;42.524;12.052;2022-10-16T12:53:23;97445.03;;;22.87;64.38
56807;BME280;42687;42.524;12.052;2022-10-16T13:03:22;97452.75;;;21.68;66.18
56807;BME280;42687;42.524;12.052;2022-10-16T13:08:29;97456.16;;;20.90;67.61
56807;BME280;42687;42.524;12.052;2022-10-16T13:19:00;97452.38;;;20.21;68.64
56807;BME280;42687;42.524;12.052;2022-10-16T13:24:09;97446.31;;;20.49;67.34
56807;BME280;42687;42.524;12.052;2022-10-16T13:29:12;97452.38;;;20.92;66.58
56807;BME280;42687;42.524;12.052;2022-10-16T13:31:39;97454.81;;;21.05;66.73
56807;BME280;42687;42.524;12.052;2022-10-16T13:34:10;97456.75;;;21.03;66.58
56807;BME280;42687;42.524;12.052;2022-10-16T13:36:48;97454.91;;;20.94;66.07
56807;BME280;42687;42.524;12.052;2022-10-16T13:39:26;97454.63;;;20.87;66.16
56807;BME280;42687;42.524;12.052;2022-10-16T13:42:12;97457.28;;;20.87;66.54
56807;BME280;42687;42.524;12.052;2022-10-16T13:44:48;97464.19;;;20.90;68.68
56807;BME280;42687;42.524;12.052;2022-10-16T13:47:19;97454.47;;;20.89;66.59
56807;BME280;42687;42.524;12.052;2022-10-16T13:49:45;97452.53;;;20.91;66.22
56807;BME280;42687;42.524;12.052;2022-10-16T13:52:22;97447.59;;;20.96;66.13
56807;BME280;42687;42.524;12.052;2022-10-16T13:54:47;97459.19;;;21.06;67.07
56807;BME280;42687;42.524;12.052;2022-10-16T13:57:16;97449.31;;;21.16;68.47
56807;BME280;42687;42.524;12.052;2022-10-16T13:59:42;97451.59;;;21.21;65.92
56807;BME280;42687;42.524;12.052;2022-10-16T14:02:26;97450.31;;;21.25;65.53
56807;BME280;42687;42.524;12.052;2022-10-16T14:04:54;97445.97;;;21.34;65.16
56807;BME280;42687;42.524;12.052;2022-10-16T14:07:21;97447.94;;;21.32;65.34
56807;BME280;42687;42.524;12.052;2022-10-16T14:09:50;97443.13;;;21.26;65.70
56807;BME280;42687;42.524;12.052;2022-10-16T14:12:16;97451.72;;;21.20;65.68
56807;BME280;42687;42.524;12.052;2022-10-16T14:14:46;97458.03;;;20.99;66.38
56807;BME280;42687;42.524;12.052;2022-10-16T14:17:13;97463.09;;;20.61;66.55
56807;BME280;42687;42.524;12.052;2022-10-16T14:19:40;97458.53;;;20.21;68.63
56807;BME280;42687;42.524;12.052;2022-10-16T14:22:13;97458.38;;;19.92;70.00
56807;BME280;42687;42.524;12.052;2022-10-16T14:24:46;97463.50;;;19.62;70.68
56807;BME280;42687;42.524;12.052;2022-10-16T14:30:21;97461.69;;;19.30;71.62
56807;BME280;42687;42.524;12.052;2022-10-16T14:32:57;97457.81;;;19.34;73.11
56807;BME280;42687;42.524;12.052;2022-10-16T14:35:27;97456.13;;;19.55;69.49
56807;BME280;42687;42.524;12.052;2022-10-16T14:37:54;97380.47;;;19.34;71.55